Time;durP1;ratioP1;P1;durP2;ratioP2;P2;SDS_P1;SDS_P2;PMS_P1;PMS_P2;Temp;Humidity;BMP_temperature;BMP_pressure;BME280_temperature;BME280_humidity;BME280_pressure;Samples;Min_cycle;Max_cycle;Signal;HPM_P1;HPM_P2
2023/05/21 00:01:05;;;;;;;15.25;13.32;;;;;;;;;;5075271;28;20132;-73
2023/05/21 00:03:32;;;;;;;14.52;12.73;;;;;;;;;;5043635;28;20060;-73
2023/05/21 00:06:00;;;;;;;15.15;13.25;;;;;;;;;;5075689;28;20052;-73
2023/05/21 00:08:27;;;;;;;16.27;13.52;;;;;;;;;;5075322;28;20094;-72
2023/05/21 00:10:54;;;;;;;18.23;13.32;;;;;;;;;;5074393;28;20530;-72
2023/05/21 00:13:21;;;;;;;16.58;14.00;;;;;;;;;;5075768;28;20047;-73
2023/05/21 00:15:48;;;;;;;15.68;13.25;;;;;;;;;;5075468;28;20098;-73
2023/05/21 00:18:15;;;;;;;15.00;13.13;;;;;;;;;;5075427;28;20139;-73
2023/05/21 00:20:41;;;;;;;17.88;14.27;;;;;;;;;;5075268;28;20105;-73
2023/05/21 00:23:09;;;;;;;17.15;14.82;;;;;;;;;;5093167;28;20090;-73
2023/05/21 00:25:35;;;;;;;17.95;13.60;;;;;;;;;;5075554;28;20113;-73
2023/05/21 00:28:02;;;;;;;15.95;13.48;;;;;;;;;;5075256;28;20083;-73
2023/05/21 00:30:29;;;;;;;14.82;13.23;;;;;;;;;;5092754;28;20055;-73
2023/05/21 00:32:57;;;;;;;18.85;13.75;;;;;;;;;;5075153;28;20411;-73
2023/05/21 00:35:24;;;;;;;18.10;13.95;;;;;;;;;;5074646;28;20054;-73
2023/05/21 00:37:52;;;;;;;15.63;13.73;;;;;;;;;;5074836;28;20044;-72
2023/05/21 00:40:19;;;;;;;17.85;14.30;;;;;;;;;;5074669;28;20478;-73
2023/05/21 00:42:47;;;;;;;17.42;13.57;;;;;;;;;;5074889;28;20094;-73
2023/05/21 00:45:14;;;;;;;16.77;14.85;;;;;;;;;;5057701;28;20127;-73
2023/05/21 00:47:40;;;;;;;18.58;15.05;;;;;;;;;;5074700;28;20055;-73
2023/05/21 00:50:07;;;;;;;20.00;16.20;;;;;;;;;;5074304;28;20056;-73
2023/05/21 00:52:40;;;;;;;20.38;15.23;;;;;;;;;;5055104;28;20470;-73
2023/05/21 00:55:08;;;;;;;;;;;;;;;;;;5044046;28;20051;-73
2023/05/21 00:57:36;;;;;;;19.80;15.35;;;;;;;;;;5074430;28;20358;-73
2023/05/21 01:00:06;;;;;;;18.13;15.10;;;;;;;;;;5057477;28;20130;-74
2023/05/21 01:02:35;;;;;;;18.75;15.40;;;;;;;;;;5054720;28;20109;-74
2023/05/21 01:05:06;;;;;;;16.35;14.20;;;;;;;;;;5074270;28;20079;-73
2023/05/21 01:07:33;;;;;;;17.33;14.68;;;;;;;;;;5057786;28;20507;-74
2023/05/21 01:10:05;;;;;;;17.75;14.60;;;;;;;;;;5074160;28;20131;-74
2023/05/21 01:12:32;;;;;;;19.77;15.80;;;;;;;;;;5051614;28;20091;-74
2023/05/21 01:15:00;;;;;;;18.20;15.07;;;;;;;;;;5054205;28;20045;-74
2023/05/21 01:17:27;;;;;;;17.85;15.38;;;;;;;;;;5054387;28;20147;-74
2023/05/21 01:19:55;;;;;;;18.33;15.38;;;;;;;;;;5037519;28;20058;-73
2023/05/21 01:22:23;;;;;;;18.05;15.10;;;;;;;;;;5021398;28;20095;-73
2023/05/21 01:24:51;;;;;;;18.15;15.52;;;;;;;;;;5061224;28;20124;-74
2023/05/21 01:27:18;;;;;;;20.83;15.07;;;;;;;;;;5057512;28;20044;-74
2023/05/21 01:29:45;;;;;;;19.00;16.08;;;;;;;;;;5073918;28;20058;-73
2023/05/21 01:32:18;;;;;;;17.88;15.95;;;;;;;;;;5073886;28;20094;-74
2023/05/21 01:34:44;;;;;;;;;;;;;;;;;;5074382;28;20472;-74
2023/05/21 01:37:22;;;;;;;17.85;15.65;;;;;;;;;;5073878;28;19920;-74
2023/05/21 01:39:54;;;;;;;20.40;16.85;;;;;;;;;;5073887;28;20047;-74
2023/05/21 01:42:21;;;;;;;18.55;16.10;;;;;;;;;;5073633;28;20542;-74
2023/05/21 01:44:51;;;;;;;19.20;14.45;;;;;;;;;;5073412;28;20052;-74
2023/05/21 01:47:17;;;;;;;20.80;16.55;;;;;;;;;;5056998;28;20098;-74
2023/05/21 01:49:44;;;;;;;20.40;16.10;;;;;;;;;;5056914;28;20424;-73
2023/05/21 01:52:11;;;;;;;21.45;17.40;;;;;;;;;;5072999;28;20048;-74
2023/05/21 01:54:38;;;;;;;24.40;17.80;;;;;;;;;;5073355;28;20153;-74
2023/05/21 01:57:20;;;;;;;18.35;16.38;;;;;;;;;;5014227;28;20445;-74
2023/05/21 01:59:46;;;;;;;18.17;16.20;;;;;;;;;;5012397;28;20137;-73
2023/05/21 02:02:13;;;;;;;21.50;16.40;;;;;;;;;;5012003;28;20089;-74
2023/05/21 02:04:40;;;;;;;22.30;16.73;;;;;;;;;;5012117;28;20083;-74
2023/05/21 02:07:09;;;;;;;18.73;16.15;;;;;;;;;;5011822;28;20573;-74
2023/05/21 02:09:35;;;;;;;23.65;17.17;;;;;;;;;;5011788;28;20486;-74
2023/05/21 02:12:02;;;;;;;21.08;16.60;;;;;;;;;;5012023;28;20049;-75
2023/05/21 02:14:29;;;;;;;18.80;16.13;;;;;;;;;;5012218;28;20572;-74
2023/05/21 02:16:56;;;;;;;21.55;17.23;;;;;;;;;;5012246;28;20088;-74
2023/05/21 02:19:23;;;;;;;21.50;16.73;;;;;;;;;;4995939;28;20055;-75
2023/05/21 02:21:50;;;;;;;19.50;16.73;;;;;;;;;;5011731;28;20069;-75
2023/05/21 02:24:17;;;;;;;19.42;16.33;;;;;;;;;;5012046;28;20153;-74
2023/05/21 02:26:44;;;;;;;19.13;17.00;;;;;;;;;;5012138;28;20049;-74
2023/05/21 02:29:10;;;;;;;20.15;17.15;;;;;;;;;;5012069;28;20561;-74
2023/05/21 02:31:37;;;;;;;19.95;17.75;;;;;;;;;;5011849;28;20064;-74
2023/05/21 02:34:04;;;;;;;21.73;17.65;;;;;;;;;;5028639;28;20465;-74
2023/05/21 02:36:32;;;;;;;20.63;17.08;;;;;;;;;;5072738;28;20055;-74
2023/05/21 02:39:00;;;;;;;23.67;16.88;;;;;;;;;;5072877;28;20048;-74
2023/05/21 02:41:27;;;;;;;23.40;18.05;;;;;;;;;;5072691;28;20056;-74
2023/05/21 02:43:54;;;;;;;24.45;18.63;;;;;;;;;;5072864;28;20091;-74
2023/05/21 02:46:20;;;;;;;24.38;18.83;;;;;;;;;;5072095;28;20055;-74
2023/05/21 02:48:47;;;;;;;21.55;17.92;;;;;;;;;;5072630;28;20397;-74
2023/05/21 02:51:14;;;;;;;21.67;17.45;;;;;;;;;;5072806;28;20074;-73
2023/05/21 02:53:41;;;;;;;20.98;17.73;;;;;;;;;;5072697;28;20139;-74
2023/05/21 02:56:07;;;;;;;22.65;18.20;;;;;;;;;;5072561;28;20571;-73
2023/05/21 02:58:34;;;;;;;26.27;19.23;;;;;;;;;;5072818;28;20091;-74
2023/05/21 03:01:01;;;;;;;25.08;19.98;;;;;;;;;;5072478;28;20131;-72
2023/05/21 03:03:28;;;;;;;25.95;18.90;;;;;;;;;;5072452;28;20051;-72
2023/05/21 03:05:55;;;;;;;21.85;18.48;;;;;;;;;;5072799;28;20055;-74
2023/05/21 03:08:22;;;;;;;23.85;19.63;;;;;;;;;;5072579;28;20095;-75
2023/05/21 03:10:48;;;;;;;22.02;18.27;;;;;;;;;;5072794;28;20070;-74
2023/05/21 03:13:15;;;;;;;25.50;19.77;;;;;;;;;;5036392;28;20080;-74
2023/05/21 03:15:42;;;;;;;23.75;19.65;;;;;;;;;;5052773;28;20083;-74
2023/05/21 03:18:10;;;;;;;23.88;18.85;;;;;;;;;;5052533;28;20045;-75
2023/05/21 03:20:42;;;;;;;25.25;20.02;;;;;;;;;;5052584;28;20060;-75
2023/05/21 03:23:11;;;;;;;23.02;19.00;;;;;;;;;;5053036;28;20064;-73
2023/05/21 03:25:42;;;;;;;23.75;19.45;;;;;;;;;;5044218;28;20059;-73
2023/05/21 03:28:08;;;;;;;24.70;18.83;;;;;;;;;;5052579;28;20423;-73
2023/05/21 03:30:37;;;;;;;22.95;18.90;;;;;;;;;;5052265;28;20095;-73
2023/05/21 03:33:05;;;;;;;22.85;19.83;;;;;;;;;;5052546;28;20052;-73
2023/05/21 03:35:32;;;;;;;25.23;19.33;;;;;;;;;;5052436;28;20058;-74
2023/05/21 03:37:59;;;;;;;25.10;18.48;;;;;;;;;;5052675;28;20126;-74
2023/05/21 03:40:26;;;;;;;24.20;20.65;;;;;;;;;;5052237;28;20131;-74
2023/05/21 03:42:52;;;;;;;24.92;19.42;;;;;;;;;;5052613;28;20057;-73
2023/05/21 03:45:19;;;;;;;24.10;19.80;;;;;;;;;;5065495;28;20689;-73
2023/05/21 03:47:47;;;;;;;26.50;20.15;;;;;;;;;;5075686;28;20091;-75
2023/05/21 03:50:14;;;;;;;24.88;19.90;;;;;;;;;;5075902;28;20105;-75
2023/05/21 03:52:41;;;;;;;27.92;21.15;;;;;;;;;;5055708;28;20052;-75
2023/05/21 03:55:08;;;;;;;29.65;20.08;;;;;;;;;;5062784;28;20080;-75
2023/05/21 03:57:36;;;;;;;26.38;20.85;;;;;;;;;;5075658;28;20455;-75
2023/05/21 04:00:04;;;;;;;26.27;19.77;;;;;;;;;;5078636;28;20083;-73
2023/05/21 04:02:31;;;;;;;27.77;19.73;;;;;;;;;;5075738;28;20595;-73
2023/05/21 04:04:58;;;;;;;24.73;20.33;;;;;;;;;;5076099;28;20059;-71
2023/05/21 04:07:25;;;;;;;23.38;19.50;;;;;;;;;;5074787;28;20545;-72
2023/05/21 04:09:52;;;;;;;25.80;21.88;;;;;;;;;;5076252;28;20059;-72
2023/05/21 04:12:19;;;;;;;23.77;20.00;;;;;;;;;;5076466;28;20127;-71
2023/05/21 04:14:46;;;;;;;24.20;20.48;;;;;;;;;;5075479;28;20123;-71
2023/05/21 04:17:13;;;;;;;27.92;21.10;;;;;;;;;;5075535;28;20143;-70
2023/05/21 04:19:40;;;;;;;27.33;21.33;;;;;;;;;;5074249;28;20091;-71
2023/05/21 04:22:09;;;;;;;23.80;19.92;;;;;;;;;;5075129;28;20051;-72
2023/05/21 04:24:36;;;;;;;26.90;20.83;;;;;;;;;;5075419;28;20050;-72
2023/05/21 04:27:04;;;;;;;23.33;19.90;;;;;;;;;;5074932;28;20091;-72
2023/05/21 04:29:31;;;;;;;23.58;19.52;;;;;;;;;;5068427;28;20400;-72
2023/05/21 04:31:58;;;;;;;24.20;19.92;;;;;;;;;;5088290;28;20468;-72
2023/05/21 04:34:24;;;;;;;24.92;19.58;;;;;;;;;;5080157;28;20058;-72
2023/05/21 04:36:52;;;;;;;24.67;18.52;;;;;;;;;;5094571;28;20455;-71
2023/05/21 04:39:19;;;;;;;24.85;19.10;;;;;;;;;;5075232;28;20052;-73
2023/05/21 04:41:47;;;;;;;21.60;18.52;;;;;;;;;;5074898;28;20043;-72
2023/05/21 04:44:14;;;;;;;22.33;18.38;;;;;;;;;;5066712;28;20044;-71
2023/05/21 04:46:41;;;;;;;25.02;19.55;;;;;;;;;;5085447;28;20056;-71
2023/05/21 04:49:09;;;;;;;25.40;20.17;;;;;;;;;;5085715;28;20488;-72
2023/05/21 04:51:36;;;;;;;24.27;19.52;;;;;;;;;;5109783;28;20047;-72
2023/05/21 04:54:03;;;;;;;23.83;18.02;;;;;;;;;;5094892;28;20530;-71
2023/05/21 04:56:33;;;;;;;24.27;18.73;;;;;;;;;;5094614;28;20135;-71
2023/05/21 04:59:00;;;;;;;21.95;17.77;;;;;;;;;;5095235;28;20051;-71
2023/05/21 05:01:31;;;;;;;21.60;18.77;;;;;;;;;;5095148;28;20051;-72
2023/05/21 05:03:57;;;;;;;23.35;18.88;;;;;;;;;;5095151;28;20060;-72
2023/05/21 05:06:25;;;;;;;23.88;18.77;;;;;;;;;;5091386;28;20138;-72
2023/05/21 05:08:52;;;;;;;20.35;17.85;;;;;;;;;;5074510;28;20059;-71
2023/05/21 05:11:18;;;;;;;21.67;18.15;;;;;;;;;;5082686;28;20109;-71
2023/05/21 05:13:45;;;;;;;21.05;17.33;;;;;;;;;;5080328;28;20043;-71
2023/05/21 05:16:16;;;;;;;23.10;17.80;;;;;;;;;;5092507;28;20132;-72
2023/05/21 05:18:42;;;;;;;20.25;17.60;;;;;;;;;;5074467;28;20526;-73
2023/05/21 05:21:09;;;;;;;22.00;17.35;;;;;;;;;;5073813;28;20052;-74
2023/05/21 05:23:36;;;;;;;23.20;18.30;;;;;;;;;;5073929;28;20131;-74
2023/05/21 05:26:03;;;;;;;22.25;17.98;;;;;;;;;;5074383;28;20529;-73
2023/05/21 05:28:30;;;;;;;18.95;16.35;;;;;;;;;;5073886;28;20048;-73
2023/05/21 05:30:56;;;;;;;20.65;17.63;;;;;;;;;;5073945;28;20155;-72
2023/05/21 05:33:23;;;;;;;20.15;16.95;;;;;;;;;;5073864;28;20090;-73
2023/05/21 05:35:50;;;;;;;21.13;17.42;;;;;;;;;;5073540;28;20055;-73
2023/05/21 05:38:16;;;;;;;22.13;17.70;;;;;;;;;;5057711;28;20659;-73
2023/05/21 05:40:43;;;;;;;20.38;16.80;;;;;;;;;;5074200;28;20056;-74
2023/05/21 05:43:10;;;;;;;20.25;17.00;;;;;;;;;;5073732;28;20044;-74
2023/05/21 05:45:37;;;;;;;24.45;17.92;;;;;;;;;;5073350;28;20135;-74
2023/05/21 05:48:04;;;;;;;21.58;16.92;;;;;;;;;;5074457;28;20093;-72
2023/05/21 05:50:31;;;;;;;21.73;16.92;;;;;;;;;;5073916;28;20109;-73
2023/05/21 05:52:58;;;;;;;21.52;17.00;;;;;;;;;;5074023;28;20055;-72
2023/05/21 05:55:25;;;;;;;24.52;17.05;;;;;;;;;;5073251;28;20127;-72
2023/05/21 05:57:52;;;;;;;18.90;16.10;;;;;;;;;;5073630;28;20059;-72
2023/05/21 06:00:19;;;;;;;20.23;16.98;;;;;;;;;;5073460;28;20419;-73
2023/05/21 06:02:46;;;;;;;21.73;16.55;;;;;;;;;;5072804;28;20091;-73
2023/05/21 06:05:13;;;;;;;17.65;15.52;;;;;;;;;;5071602;28;20047;-76
2023/05/21 06:07:41;;;;;;;18.67;16.17;;;;;;;;;;5071183;28;20048;-73
2023/05/21 06:10:08;;;;;;;20.77;16.77;;;;;;;;;;5072259;28;20128;-72
2023/05/21 06:12:34;;;;;;;21.98;16.65;;;;;;;;;;5072202;28;20058;-72
2023/05/21 06:15:01;;;;;;;19.52;16.70;;;;;;;;;;5071817;28;20497;-72
2023/05/21 06:17:28;;;;;;;17.38;15.55;;;;;;;;;;5072280;28;20048;-72
2023/05/21 06:19:55;;;;;;;17.67;14.98;;;;;;;;;;5072076;28;20067;-72
2023/05/21 06:22:22;;;;;;;19.20;16.48;;;;;;;;;;5071966;28;20645;-72
2023/05/21 06:24:51;;;;;;;21.75;17.42;;;;;;;;;;5071837;28;20048;-72
2023/05/21 06:27:17;;;;;;;19.25;17.25;;;;;;;;;;5071871;28;20113;-72
2023/05/21 06:29:44;;;;;;;18.83;16.27;;;;;;;;;;5071757;28;20134;-72
2023/05/21 06:32:11;;;;;;;18.70;15.80;;;;;;;;;;5071455;28;20044;-76
2023/05/21 06:34:39;;;;;;;18.52;15.95;;;;;;;;;;5072028;28;20058;-83
2023/05/21 06:37:06;;;;;;;17.50;15.57;;;;;;;;;;5072165;28;20143;-81
2023/05/21 06:39:33;;;;;;;19.85;15.88;;;;;;;;;;5089216;28;20138;-74
2023/05/21 06:42:00;;;;;;;19.23;15.77;;;;;;;;;;5091311;28;20585;-83
2023/05/21 06:44:27;;;;;;;18.95;16.63;;;;;;;;;;5061164;28;20055;-81
2023/05/21 06:46:54;;;;;;;20.13;16.48;;;;;;;;;;5070546;28;20091;-82
2023/05/21 06:49:21;;;;;;;22.05;16.88;;;;;;;;;;5069762;28;20052;-82
2023/05/21 06:51:48;;;;;;;19.58;17.17;;;;;;;;;;5062934;28;20155;-83
2023/05/21 06:54:14;;;;;;;18.35;15.50;;;;;;;;;;5062660;28;20513;-77
2023/05/21 06:56:41;;;;;;;19.45;16.52;;;;;;;;;;5064159;28;20160;-82
2023/05/21 06:59:08;;;;;;;22.52;16.85;;;;;;;;;;5066234;28;20048;-79
2023/05/21 07:01:35;;;;;;;18.92;16.02;;;;;;;;;;5078907;28;20111;-77
2023/05/21 07:04:02;;;;;;;19.48;17.38;;;;;;;;;;5082342;28;20051;-77
2023/05/21 07:06:29;;;;;;;21.15;17.00;;;;;;;;;;5054434;28;20048;-75
2023/05/21 07:08:55;;;;;;;18.92;16.92;;;;;;;;;;5054216;28;20579;-77
2023/05/21 07:11:24;;;;;;;19.08;15.55;;;;;;;;;;5070090;28;20052;-77
2023/05/21 07:13:50;;;;;;;17.58;15.05;;;;;;;;;;5037607;28;20087;-78
2023/05/21 07:16:17;;;;;;;19.38;16.27;;;;;;;;;;5053858;28;20160;-80
2023/05/21 07:18:44;;;;;;;17.23;15.27;;;;;;;;;;5072659;28;20063;-76
2023/05/21 07:21:11;;;;;;;17.48;15.70;;;;;;;;;;5072554;28;20499;-75
2023/05/21 07:23:38;;;;;;;20.00;17.13;;;;;;;;;;5093605;28;20151;-74
2023/05/21 07:26:04;;;;;;;17.92;16.02;;;;;;;;;;5062149;28;20078;-76
2023/05/21 07:28:31;;;;;;;19.27;15.18;;;;;;;;;;5104282;28;20580;-75
2023/05/21 07:30:58;;;;;;;17.85;15.77;;;;;;;;;;5084073;28;20472;-72
2023/05/21 07:33:25;;;;;;;21.23;16.42;;;;;;;;;;5087888;28;20443;-72
2023/05/21 07:35:51;;;;;;;18.02;14.40;;;;;;;;;;5042616;28;20054;-74
2023/05/21 07:38:18;;;;;;;16.45;14.65;;;;;;;;;;5059596;28;20530;-78
2023/05/21 07:40:45;;;;;;;19.38;15.02;;;;;;;;;;5076055;28;20447;-72
2023/05/21 07:43:12;;;;;;;16.65;14.15;;;;;;;;;;5060374;28;20453;-80
2023/05/21 07:45:39;;;;;;;15.45;13.85;;;;;;;;;;5058982;28;20072;-76
2023/05/21 07:48:07;;;;;;;14.23;12.80;;;;;;;;;;5059455;28;20421;-81
2023/05/21 07:50:34;;;;;;;14.27;12.77;;;;;;;;;;5023919;28;20056;-74
2023/05/21 07:53:01;;;;;;;14.32;12.82;;;;;;;;;;5056568;28;20044;-78
2023/05/21 07:55:28;;;;;;;13.95;12.55;;;;;;;;;;5064548;28;20119;-74
2023/05/21 07:57:55;;;;;;;13.82;12.43;;;;;;;;;;5075955;28;20051;-74
2023/05/21 08:00:22;;;;;;;15.38;13.00;;;;;;;;;;5075850;28;20126;-74
2023/05/21 08:02:51;;;;;;;14.30;12.50;;;;;;;;;;5076963;28;20059;-75
2023/05/21 08:05:19;;;;;;;17.30;12.43;;;;;;;;;;5060045;28;20075;-74
2023/05/21 08:07:46;;;;;;;15.40;12.40;;;;;;;;;;5075900;28;20094;-74
2023/05/21 08:10:13;;;;;;;16.23;12.13;;;;;;;;;;5075918;28;20139;-74
2023/05/21 08:12:41;;;;;;;12.77;11.48;;;;;;;;;;5076207;28;20059;-74
2023/05/21 08:15:08;;;;;;;12.85;11.05;;;;;;;;;;5054780;28;20057;-74
2023/05/21 08:17:35;;;;;;;12.88;11.48;;;;;;;;;;5073418;28;20534;-74
2023/05/21 08:20:03;;;;;;;13.82;12.50;;;;;;;;;;5055608;28;20048;-74
2023/05/21 08:22:29;;;;;;;12.75;10.88;;;;;;;;;;5073137;28;20390;-75
2023/05/21 08:24:56;;;;;;;14.23;11.82;;;;;;;;;;5058230;28;20092;-75
2023/05/21 08:27:23;;;;;;;13.90;11.05;;;;;;;;;;5075241;28;20136;-75
2023/05/21 08:29:49;;;;;;;11.88;10.65;;;;;;;;;;5076579;28;20473;-75
2023/05/21 08:32:16;;;;;;;10.80;9.55;;;;;;;;;;5083180;28;20075;-75
2023/05/21 08:34:43;;;;;;;11.82;10.63;;;;;;;;;;5087871;28;20074;-75
2023/05/21 08:37:10;;;;;;;11.73;10.52;;;;;;;;;;5088357;28;20050;-75
2023/05/21 08:39:36;;;;;;;13.02;11.15;;;;;;;;;;5085125;28;20131;-75
2023/05/21 08:42:17;;;;;;;11.45;10.27;;;;;;;;;;5095412;28;20487;-75
2023/05/21 08:45:01;;;;;;;12.05;10.10;;;;;;;;;;5079098;28;20139;-75
2023/05/21 08:47:29;;;;;;;10.05;9.00;;;;;;;;;;5050252;28;20416;-75
2023/05/21 08:49:56;;;;;;;10.48;9.48;;;;;;;;;;5075038;28;20094;-75
2023/05/21 08:52:23;;;;;;;11.75;10.55;;;;;;;;;;5042259;28;20145;-75
2023/05/21 08:54:50;;;;;;;11.20;10.00;;;;;;;;;;5075486;28;20102;-75
2023/05/21 08:57:16;;;;;;;10.43;9.38;;;;;;;;;;5058471;28;20079;-75
2023/05/21 08:59:44;;;;;;;10.63;9.10;;;;;;;;;;5058362;28;20048;-75
2023/05/21 09:02:12;;;;;;;10.95;9.77;;;;;;;;;;5041371;28;20087;-75
2023/05/21 09:04:39;;;;;;;12.00;10.05;;;;;;;;;;5038300;28;20136;-75
2023/05/21 09:07:06;;;;;;;11.02;9.55;;;;;;;;;;5055496;28;20469;-76
2023/05/21 09:09:36;;;;;;;11.75;10.27;;;;;;;;;;5071618;28;20268;-78
2023/05/21 09:12:03;;;;;;;12.30;10.73;;;;;;;;;;5083948;28;20098;-79
2023/05/21 09:14:29;;;;;;;13.18;9.25;;;;;;;;;;5065599;28;20126;-80
2023/05/21 09:16:56;;;;;;;10.02;9.02;;;;;;;;;;5042793;28;20048;-77
2023/05/21 09:19:23;;;;;;;10.77;9.68;;;;;;;;;;5076150;28;20078;-80
2023/05/21 09:21:53;;;;;;;14.88;10.15;;;;;;;;;;5058274;28;20059;-75
2023/05/21 09:24:23;;;;;;;10.13;9.13;;;;;;;;;;5074114;28;20044;-75
2023/05/21 09:26:51;;;;;;;11.68;9.57;;;;;;;;;;5073676;28;20127;-74
2023/05/21 09:29:18;;;;;;;10.13;8.85;;;;;;;;;;5054922;28;20056;-75
2023/05/21 09:31:45;;;;;;;9.95;8.93;;;;;;;;;;5072864;28;20083;-75
2023/05/21 09:34:15;;;;;;;9.57;7.82;;;;;;;;;;5072141;28;20052;-75
2023/05/21 09:36:45;;;;;;;9.15;8.23;;;;;;;;;;5072740;28;20144;-74
2023/05/21 09:39:26;;;;;;;9.40;8.40;;;;;;;;;;5072143;28;20047;-75
2023/05/21 09:41:55;;;;;;;9.63;8.70;;;;;;;;;;5053925;28;20485;-74
2023/05/21 09:44:22;;;;;;;8.43;7.63;;;;;;;;;;5081833;28;20052;-75
2023/05/21 09:46:49;;;;;;;8.35;7.55;;;;;;;;;;5072665;28;20097;-75
2023/05/21 09:49:25;;;;;;;11.88;7.78;;;;;;;;;;5073586;28;20071;-75
2023/05/21 09:51:58;;;;;;;10.52;8.30;;;;;;;;;;5068869;28;20066;-74
2023/05/21 09:54:30;;;;;;;10.10;7.53;;;;;;;;;;5072278;28;20052;-75
2023/05/21 09:56:57;;;;;;;7.88;7.07;;;;;;;;;;5074341;28;20502;-77
2023/05/21 09:59:23;;;;;;;8.05;7.25;;;;;;;;;;5056602;28;20048;-75
2023/05/21 10:01:51;;;;;;;9.00;8.10;;;;;;;;;;5050408;28;20070;-75
2023/05/21 10:04:18;;;;;;;9.13;7.70;;;;;;;;;;5051195;28;20102;-74
2023/05/21 10:06:46;;;;;;;9.32;7.95;;;;;;;;;;5053147;28;20058;-75
2023/05/21 10:09:14;;;;;;;8.32;7.45;;;;;;;;;;5032073;28;20087;-75
2023/05/21 10:11:43;;;;;;;8.85;7.95;;;;;;;;;;5045771;28;20065;-75
2023/05/21 10:14:15;;;;;;;7.95;7.07;;;;;;;;;;5064358;28;20539;-75
2023/05/21 10:16:42;;;;;;;8.45;6.78;;;;;;;;;;5049981;28;20131;-74
2023/05/21 10:19:10;;;;;;;7.80;7.00;;;;;;;;;;5052730;28;20074;-74
2023/05/21 10:21:38;;;;;;;8.40;7.53;;;;;;;;;;5048455;28;20154;-77
2023/05/21 10:24:06;;;;;;;8.45;6.70;;;;;;;;;;5048413;28;20052;-75
2023/05/21 10:26:32;;;;;;;8.20;6.38;;;;;;;;;;5076417;28;20139;-75
2023/05/21 10:28:59;;;;;;;7.30;6.60;;;;;;;;;;5041712;28;20051;-75
2023/05/21 10:31:27;;;;;;;8.48;7.30;;;;;;;;;;5038234;28;20076;-75
2023/05/21 10:33:54;;;;;;;8.90;7.55;;;;;;;;;;5066972;28;20044;-75
2023/05/21 10:36:23;;;;;;;7.22;6.53;;;;;;;;;;5057463;28;20079;-75
2023/05/21 10:38:50;;;;;;;7.38;6.68;;;;;;;;;;5068229;28;20090;-74
2023/05/21 10:41:17;;;;;;;7.97;6.30;;;;;;;;;;5066613;28;20420;-75
2023/05/21 10:44:03;;;;;;;8.23;7.28;;;;;;;;;;5065804;28;20087;-74
2023/05/21 10:47:05;;;;;;;6.95;6.32;;;;;;;;;;5050809;28;20079;-76
2023/05/21 10:49:44;;;;;;;8.50;6.70;;;;;;;;;;5057530;28;20457;-75
2023/05/21 10:52:48;;;;;;;7.43;6.60;;;;;;;;;;5062449;28;20098;-73
2023/05/21 10:55:30;;;;;;;7.00;6.00;;;;;;;;;;5067469;28;20049;-74
2023/05/21 10:58:20;;;;;;;7.63;6.68;;;;;;;;;;5072518;28;20115;-75
2023/05/21 11:00:46;;;;;;;7.63;6.38;;;;;;;;;;5070014;28;20418;-75
2023/05/21 11:03:13;;;;;;;7.20;6.05;;;;;;;;;;5067279;28;20515;-75
2023/05/21 11:05:51;;;;;;;6.53;5.95;;;;;;;;;;5068435;28;20143;-75
2023/05/21 11:08:25;;;;;;;6.82;6.20;;;;;;;;;;5064907;28;20102;-74
2023/05/21 11:10:53;;;;;;;7.40;6.70;;;;;;;;;;5040889;28;20062;-75
2023/05/21 11:13:20;;;;;;;6.50;5.82;;;;;;;;;;5058589;28;20090;-75
2023/05/21 11:15:56;;;;;;;7.50;6.75;;;;;;;;;;5074027;28;20121;-75
2023/05/21 11:18:32;;;;;;;7.35;6.65;;;;;;;;;;5068957;28;20055;-75
2023/05/21 11:21:03;;;;;;;8.98;6.88;;;;;;;;;;5049655;28;20056;-75
2023/05/21 11:23:52;;;;;;;6.40;5.88;;;;;;;;;;5053892;28;20491;-74
2023/05/21 11:26:21;;;;;;;8.55;6.07;;;;;;;;;;5068483;28;20424;-76
2023/05/21 11:29:04;;;;;;;6.30;5.70;;;;;;;;;;5064252;28;20056;-75
2023/05/21 11:31:37;;;;;;;6.43;5.15;;;;;;;;;;5065040;28;20087;-74
2023/05/21 11:34:10;;;;;;;7.22;6.30;;;;;;;;;;5048650;28;20060;-74
2023/05/21 11:36:43;;;;;;;8.80;5.75;;;;;;;;;;5062138;28;20135;-74
2023/05/21 11:39:20;;;;;;;;;;;;;;;;;;5062736;28;20167;-75
2023/05/21 11:41:57;;;;;;;6.38;5.78;;;;;;;;;;5048795;28;20004;-75
2023/05/21 11:44:43;;;;;;;5.85;5.32;;;;;;;;;;5070041;28;20052;-76
2023/05/21 11:47:16;;;;;;;;;;;;;;;;;;5046095;28;20135;-76
2023/05/21 11:49:43;;;;;;;6.05;5.45;;;;;;;;;;5065143;28;19924;-76
2023/05/21 11:52:11;;;;;;;7.75;6.40;;;;;;;;;;5029867;28;20110;-81
2023/05/21 11:55:04;;;;;;;8.98;6.28;;;;;;;;;;5045775;28;20114;-76
2023/05/21 11:57:31;;;;;;;7.60;6.90;;;;;;;;;;5053782;28;20052;-76
2023/05/21 11:59:59;;;;;;;7.15;6.28;;;;;;;;;;5063888;28;20040;-74
2023/05/21 12:02:30;;;;;;;6.10;5.50;;;;;;;;;;5063778;28;20392;-75
2023/05/21 12:04:59;;;;;;;5.47;4.97;;;;;;;;;;5051593;28;20059;-74
2023/05/21 12:07:30;;;;;;;5.78;4.70;;;;;;;;;;5065261;28;20085;-75
2023/05/21 12:09:57;;;;;;;5.90;5.28;;;;;;;;;;5064325;28;20453;-75
2023/05/21 12:12:25;;;;;;;11.43;5.85;;;;;;;;;;5065814;28;20080;-77
2023/05/21 12:15:01;;;;;;;10.43;6.35;;;;;;;;;;5055168;28;20477;-76
2023/05/21 12:17:30;;;;;;;7.00;5.15;;;;;;;;;;5074237;28;20048;-76
2023/05/21 12:19:58;;;;;;;5.25;4.75;;;;;;;;;;5052669;28;20056;-77
2023/05/21 12:22:26;;;;;;;5.30;4.80;;;;;;;;;;5053578;28;20050;-76
2023/05/21 12:24:57;;;;;;;5.75;5.22;;;;;;;;;;5048620;28;20127;-73
2023/05/21 12:27:27;;;;;;;5.50;4.93;;;;;;;;;;5075433;28;20105;-73
2023/05/21 12:29:55;;;;;;;6.22;4.90;;;;;;;;;;5054976;28;20055;-72
2023/05/21 12:32:23;;;;;;;5.78;5.22;;;;;;;;;;5059247;28;20059;-73
2023/05/21 12:34:53;;;;;;;5.55;5.05;;;;;;;;;;5045208;28;20139;-73
2023/05/21 12:37:25;;;;;;;5.90;4.97;;;;;;;;;;5062719;28;20092;-72
2023/05/21 12:39:57;;;;;;;5.45;4.65;;;;;;;;;;5065929;28;20048;-72
2023/05/21 12:42:34;;;;;;;5.53;4.88;;;;;;;;;;5079726;28;20087;-72
2023/05/21 12:45:07;;;;;;;5.95;5.03;;;;;;;;;;5061523;28;20074;-73
2023/05/21 12:47:35;;;;;;;5.13;4.68;;;;;;;;;;5062529;28;20050;-73
2023/05/21 12:50:08;;;;;;;5.10;4.60;;;;;;;;;;5060731;28;20061;-72
2023/05/21 12:52:35;;;;;;;;;;;;;;;;;;5064393;28;20129;-73
2023/05/21 12:55:02;;;;;;;5.70;4.72;;;;;;;;;;5084015;28;19931;-73
2023/05/21 12:57:40;;;;;;;5.07;4.57;;;;;;;;;;5043378;28;20051;-73
2023/05/21 13:00:09;;;;;;;5.18;4.68;;;;;;;;;;5064187;28;20044;-73
2023/05/21 13:02:41;;;;;;;6.60;5.20;;;;;;;;;;5056316;28;20113;-73
2023/05/21 13:05:17;;;;;;;6.20;4.57;;;;;;;;;;5068773;28;20067;-73
2023/05/21 13:07:49;;;;;;;6.78;4.95;;;;;;;;;;5068734;28;20052;-73
2023/05/21 13:10:17;;;;;;;7.20;4.90;;;;;;;;;;5061735;28;20048;-72
2023/05/21 13:12:48;;;;;;;4.95;4.10;;;;;;;;;;5063566;28;20129;-73
2023/05/21 13:15:16;;;;;;;5.40;4.80;;;;;;;;;;5060778;28;20144;-73
2023/05/21 13:17:46;;;;;;;4.65;4.15;;;;;;;;;;5065795;28;20067;-73
2023/05/21 13:20:20;;;;;;;5.00;4.35;;;;;;;;;;5068597;28;20427;-75
2023/05/21 13:22:53;;;;;;;4.63;4.15;;;;;;;;;;5076048;28;20682;-77
2023/05/21 13:25:23;;;;;;;4.22;3.83;;;;;;;;;;5049406;28;20059;-77
2023/05/21 13:27:52;;;;;;;4.80;4.05;;;;;;;;;;5066182;28;20048;-77
2023/05/21 13:30:20;;;;;;;4.38;3.97;;;;;;;;;;5062434;28;20102;-76
2023/05/21 13:32:54;;;;;;;4.18;3.78;;;;;;;;;;5057335;28;20055;-78
2023/05/21 13:35:22;;;;;;;4.95;4.45;;;;;;;;;;5057148;28;20057;-77
2023/05/21 13:37:50;;;;;;;4.40;4.00;;;;;;;;;;5048454;28;20048;-78
2023/05/21 13:40:21;;;;;;;6.38;4.47;;;;;;;;;;5047701;28;20056;-77
2023/05/21 13:42:51;;;;;;;6.68;4.55;;;;;;;;;;5034610;28;20130;-77
2023/05/21 13:45:27;;;;;;;4.78;3.75;;;;;;;;;;5052867;28;20055;-78
2023/05/21 13:47:58;;;;;;;4.78;3.78;;;;;;;;;;5065332;28;20053;-78
2023/05/21 13:50:28;;;;;;;4.82;3.97;;;;;;;;;;5048256;28;20052;-78
2023/05/21 13:53:02;;;;;;;3.90;3.60;;;;;;;;;;5059377;28;20053;-79
2023/05/21 13:55:30;;;;;;;4.25;3.92;;;;;;;;;;5049894;28;20052;-79
2023/05/21 13:57:57;;;;;;;3.72;3.42;;;;;;;;;;5064017;28;20052;-76
2023/05/21 14:00:30;;;;;;;4.93;3.97;;;;;;;;;;5048278;28;20563;-76
2023/05/21 14:02:58;;;;;;;5.22;4.35;;;;;;;;;;5066879;28;20054;-75
2023/05/21 14:05:32;;;;;;;3.83;3.35;;;;;;;;;;5047316;28;20052;-75
2023/05/21 14:08:00;;;;;;;5.10;4.07;;;;;;;;;;5028029;28;20037;-75
2023/05/21 14:10:28;;;;;;;3.53;3.22;;;;;;;;;;5060337;28;20722;-75
2023/05/21 14:12:58;;;;;;;3.78;2.92;;;;;;;;;;5062227;28;20056;-75
2023/05/21 14:15:44;;;;;;;4.13;3.53;;;;;;;;;;5067291;28;20512;-75
2023/05/21 14:18:12;;;;;;;3.78;3.38;;;;;;;;;;5060819;28;20106;-75
2023/05/21 14:20:43;;;;;;;4.10;3.22;;;;;;;;;;5061622;28;20106;-74
2023/05/21 14:23:15;;;;;;;4.25;3.25;;;;;;;;;;5056135;28;20076;-75
2023/05/21 14:25:47;;;;;;;3.93;3.13;;;;;;;;;;5047532;28;20060;-75
2023/05/21 14:28:16;;;;;;;3.55;3.25;;;;;;;;;;5050564;28;20052;-74
2023/05/21 14:30:44;;;;;;;3.60;3.30;;;;;;;;;;5065645;28;20052;-75
2023/05/21 14:33:15;;;;;;;3.97;3.17;;;;;;;;;;5044640;28;20044;-75
2023/05/21 14:35:47;;;;;;;3.13;2.92;;;;;;;;;;5063025;28;20044;-75
2023/05/21 14:38:17;;;;;;;3.60;3.22;;;;;;;;;;5059947;28;20102;-75